sensor_id;sensor_type;location;lat;lon;timestamp;temperature;humidity
35531;DHT22;21637;53.352;-6.356;2024-02-23T00:00:28;4.10;99.90
35531;DHT22;21637;53.352;-6.356;2024-02-23T00:02:54;4.10;99.90
35531;DHT22;21637;53.352;-6.356;2024-02-23T00:05:22;4.10;99.90
35531;DHT22;21637;53.352;-6.356;2024-02-23T00:07:47;4.20;99.90
35531;DHT22;21637;53.352;-6.356;2024-02-23T00:10:13;4.20;99.90
35531;DHT22;21637;53.352;-6.356;2024-02-23T00:12:39;4.20;99.90
35531;DHT22;21637;53.352;-6.356;2024-02-23T00:15:05;4.20;99.90
35531;DHT22;21637;53.352;-6.356;2024-02-23T00:17:31;4.20;99.90
35531;DHT22;21637;53.352;-6.356;2024-02-23T00:19:56;4.20;99.90
35531;DHT22;21637;53.352;-6.356;2024-02-23T00:22:22;4.30;99.90
35531;DHT22;21637;53.352;-6.356;2024-02-23T00:24:48;4.30;99.90
35531;DHT22;21637;53.352;-6.356;2024-02-23T00:27:14;4.30;99.90
35531;DHT22;21637;53.352;-6.356;2024-02-23T00:29:39;4.40;99.90
35531;DHT22;21637;53.352;-6.356;2024-02-23T00:32:06;4.40;99.90
35531;DHT22;21637;53.352;-6.356;2024-02-23T00:34:32;4.40;99.90
35531;DHT22;21637;53.352;-6.356;2024-02-23T00:36:58;4.40;99.90
35531;DHT22;21637;53.352;-6.356;2024-02-23T00:39:23;4.40;99.90
35531;DHT22;21637;53.352;-6.356;2024-02-23T00:41:49;4.40;99.90
35531;DHT22;21637;53.352;-6.356;2024-02-23T00:44:15;4.50;99.90
35531;DHT22;21637;53.352;-6.356;2024-02-23T00:46:41;4.60;99.90
35531;DHT22;21637;53.352;-6.356;2024-02-23T00:49:07;4.60;99.90
35531;DHT22;21637;53.352;-6.356;2024-02-23T00:51:32;4.60;99.90
35531;DHT22;21637;53.352;-6.356;2024-02-23T00:54:25;4.70;99.90
35531;DHT22;21637;53.352;-6.356;2024-02-23T00:57:23;4.50;99.90
35531;DHT22;21637;53.352;-6.356;2024-02-23T00:59:52;4.40;99.90
35531;DHT22;21637;53.352;-6.356;2024-02-23T01:02:18;4.30;99.90
35531;DHT22;21637;53.352;-6.356;2024-02-23T01:04:44;4.30;99.90
35531;DHT22;21637;53.352;-6.356;2024-02-23T01:07:10;4.20;99.90
35531;DHT22;21637;53.352;-6.356;2024-02-23T01:09:36;4.20;99.90
35531;DHT22;21637;53.352;-6.356;2024-02-23T01:12:01;4.00;99.90
35531;DHT22;21637;53.352;-6.356;2024-02-23T01:14:27;4.00;99.90
35531;DHT22;21637;53.352;-6.356;2024-02-23T01:16:53;4.00;99.90
35531;DHT22;21637;53.352;-6.356;2024-02-23T01:19:18;4.00;99.90
35531;DHT22;21637;53.352;-6.356;2024-02-23T01:21:44;4.10;99.90
35531;DHT22;21637;53.352;-6.356;2024-02-23T01:24:10;4.10;99.90
35531;DHT22;21637;53.352;-6.356;2024-02-23T01:26:35;4.10;99.90
35531;DHT22;21637;53.352;-6.356;2024-02-23T01:29:01;4.10;99.90
35531;DHT22;21637;53.352;-6.356;2024-02-23T01:31:29;4.10;99.90
35531;DHT22;21637;53.352;-6.356;2024-02-23T01:33:54;4.10;99.90
35531;DHT22;21637;53.352;-6.356;2024-02-23T01:36:20;4.20;99.90
35531;DHT22;21637;53.352;-6.356;2024-02-23T01:38:46;4.10;99.90
35531;DHT22;21637;53.352;-6.356;2024-02-23T01:41:12;4.10;99.90
35531;DHT22;21637;53.352;-6.356;2024-02-23T01:43:37;4.10;99.90
35531;DHT22;21637;53.352;-6.356;2024-02-23T01:46:04;4.10;99.90
35531;DHT22;21637;53.352;-6.356;2024-02-23T01:48:31;4.10;99.90
35531;DHT22;21637;53.352;-6.356;2024-02-23T01:50:57;4.10;99.90
35531;DHT22;21637;53.352;-6.356;2024-02-23T01:53:23;4.10;99.90
35531;DHT22;21637;53.352;-6.356;2024-02-23T01:55:51;4.10;99.90
35531;DHT22;21637;53.352;-6.356;2024-02-23T01:58:18;4.00;99.90
35531;DHT22;21637;53.352;-6.356;2024-02-23T02:00:43;4.00;99.90
35531;DHT22;21637;53.352;-6.356;2024-02-23T02:03:09;4.10;99.90
35531;DHT22;21637;53.352;-6.356;2024-02-23T02:05:36;4.00;99.90
35531;DHT22;21637;53.352;-6.356;2024-02-23T02:08:03;4.00;99.90
35531;DHT22;21637;53.352;-6.356;2024-02-23T02:10:28;4.00;99.90
35531;DHT22;21637;53.352;-6.356;2024-02-23T02:12:54;4.00;99.90
35531;DHT22;21637;53.352;-6.356;2024-02-23T02:15:20;4.00;99.90
35531;DHT22;21637;53.352;-6.356;2024-02-23T02:17:47;4.00;99.90
35531;DHT22;21637;53.352;-6.356;2024-02-23T02:20:13;4.00;99.90
35531;DHT22;21637;53.352;-6.356;2024-02-23T02:22:40;4.10;99.90
35531;DHT22;21637;53.352;-6.356;2024-02-23T02:25:06;4.10;99.90
35531;DHT22;21637;53.352;-6.356;2024-02-23T02:27:32;4.10;99.90
35531;DHT22;21637;53.352;-6.356;2024-02-23T02:29:58;4.10;99.90
35531;DHT22;21637;53.352;-6.356;2024-02-23T02:32:24;4.10;99.90
35531;DHT22;21637;53.352;-6.356;2024-02-23T02:34:50;4.10;99.90
35531;DHT22;21637;53.352;-6.356;2024-02-23T02:37:15;4.10;99.90
35531;DHT22;21637;53.352;-6.356;2024-02-23T02:39:41;4.10;99.90
35531;DHT22;21637;53.352;-6.356;2024-02-23T02:42:07;4.00;99.90
35531;DHT22;21637;53.352;-6.356;2024-02-23T02:44:33;4.00;99.90
35531;DHT22;21637;53.352;-6.356;2024-02-23T02:46:59;4.00;99.90
35531;DHT22;21637;53.352;-6.356;2024-02-23T02:49:25;4.00;99.90
35531;DHT22;21637;53.352;-6.356;2024-02-23T02:51:50;4.00;99.90
35531;DHT22;21637;53.352;-6.356;2024-02-23T02:54:17;4.00;99.90
35531;DHT22;21637;53.352;-6.356;2024-02-23T02:56:44;4.10;99.90
35531;DHT22;21637;53.352;-6.356;2024-02-23T02:59:12;4.10;99.90
35531;DHT22;21637;53.352;-6.356;2024-02-23T03:01:37;4.10;99.90
35531;DHT22;21637;53.352;-6.356;2024-02-23T03:04:03;4.10;99.90
35531;DHT22;21637;53.352;-6.356;2024-02-23T03:06:29;4.00;99.90
35531;DHT22;21637;53.352;-6.356;2024-02-23T03:08:55;4.10;99.90
35531;DHT22;21637;53.352;-6.356;2024-02-23T03:11:20;4.10;99.90
35531;DHT22;21637;53.352;-6.356;2024-02-23T03:13:46;4.10;99.90
35531;DHT22;21637;53.352;-6.356;2024-02-23T03:16:18;4.00;99.90
35531;DHT22;21637;53.352;-6.356;2024-02-23T03:18:44;4.00;99.90
35531;DHT22;21637;53.352;-6.356;2024-02-23T03:21:11;4.10;99.90
35531;DHT22;21637;53.352;-6.356;2024-02-23T03:23:37;4.00;99.90
35531;DHT22;21637;53.352;-6.356;2024-02-23T03:26:03;4.00;99.90
35531;DHT22;21637;53.352;-6.356;2024-02-23T03:28:29;4.00;99.90
35531;DHT22;21637;53.352;-6.356;2024-02-23T03:30:54;4.00;99.90
35531;DHT22;21637;53.352;-6.356;2024-02-23T03:33:20;4.00;99.90
35531;DHT22;21637;53.352;-6.356;2024-02-23T03:35:46;4.00;99.90
35531;DHT22;21637;53.352;-6.356;2024-02-23T03:38:12;4.00;99.90
35531;DHT22;21637;53.352;-6.356;2024-02-23T03:40:37;4.00;99.90
35531;DHT22;21637;53.352;-6.356;2024-02-23T03:43:04;3.90;99.90
35531;DHT22;21637;53.352;-6.356;2024-02-23T03:45:29;3.90;99.90
35531;DHT22;21637;53.352;-6.356;2024-02-23T03:47:55;3.90;99.90
35531;DHT22;21637;53.352;-6.356;2024-02-23T03:50:21;3.90;99.90
35531;DHT22;21637;53.352;-6.356;2024-02-23T03:52:46;3.90;99.90
35531;DHT22;21637;53.352;-6.356;2024-02-23T03:55:12;3.80;99.90
35531;DHT22;21637;53.352;-6.356;2024-02-23T03:57:38;3.80;99.90
35531;DHT22;21637;53.352;-6.356;2024-02-23T04:00:04;3.80;99.90
35531;DHT22;21637;53.352;-6.356;2024-02-23T04:02:31;3.80;99.90
35531;DHT22;21637;53.352;-6.356;2024-02-23T04:04:57;3.80;99.90
35531;DHT22;21637;53.352;-6.356;2024-02-23T04:07:23;3.80;99.90
35531;DHT22;21637;53.352;-6.356;2024-02-23T04:09:49;3.80;99.90
35531;DHT22;21637;53.352;-6.356;2024-02-23T04:12:21;3.80;99.90
35531;DHT22;21637;53.352;-6.356;2024-02-23T04:14:47;3.70;99.90
35531;DHT22;21637;53.352;-6.356;2024-02-23T04:17:13;3.70;99.90
35531;DHT22;21637;53.352;-6.356;2024-02-23T04:19:40;3.70;99.90
35531;DHT22;21637;53.352;-6.356;2024-02-23T04:22:07;3.70;99.90
35531;DHT22;21637;53.352;-6.356;2024-02-23T04:24:38;3.70;99.90
35531;DHT22;21637;53.352;-6.356;2024-02-23T04:27:05;3.80;99.90
35531;DHT22;21637;53.352;-6.356;2024-02-23T04:29:31;3.80;99.90
35531;DHT22;21637;53.352;-6.356;2024-02-23T04:31:59;3.80;99.90
35531;DHT22;21637;53.352;-6.356;2024-02-23T04:34:25;3.80;99.90
35531;DHT22;21637;53.352;-6.356;2024-02-23T04:36:50;3.80;99.90
35531;DHT22;21637;53.352;-6.356;2024-02-23T04:39:16;3.80;99.90
35531;DHT22;21637;53.352;-6.356;2024-02-23T04:41:42;3.80;99.90
35531;DHT22;21637;53.352;-6.356;2024-02-23T04:44:08;3.80;99.90
35531;DHT22;21637;53.352;-6.356;2024-02-23T04:46:34;3.70;99.90
35531;DHT22;21637;53.352;-6.356;2024-02-23T04:49:00;3.80;99.90
35531;DHT22;21637;53.352;-6.356;2024-02-23T04:51:26;3.80;99.90
35531;DHT22;21637;53.352;-6.356;2024-02-23T04:53:53;3.70;99.90
35531;DHT22;21637;53.352;-6.356;2024-02-23T04:56:19;3.70;99.90
35531;DHT22;21637;53.352;-6.356;2024-02-23T04:58:46;3.70;99.90
35531;DHT22;21637;53.352;-6.356;2024-02-23T05:01:12;3.70;99.90
35531;DHT22;21637;53.352;-6.356;2024-02-23T05:03:38;3.70;99.90
35531;DHT22;21637;53.352;-6.356;2024-02-23T05:06:05;3.70;99.90
35531;DHT22;21637;53.352;-6.356;2024-02-23T05:08:31;3.70;99.90
35531;DHT22;21637;53.352;-6.356;2024-02-23T05:10:57;3.70;99.90
35531;DHT22;21637;53.352;-6.356;2024-02-23T05:13:23;3.60;99.90
35531;DHT22;21637;53.352;-6.356;2024-02-23T05:15:49;3.60;99.90
35531;DHT22;21637;53.352;-6.356;2024-02-23T05:18:15;3.60;99.90
35531;DHT22;21637;53.352;-6.356;2024-02-23T05:20:41;3.60;99.90
35531;DHT22;21637;53.352;-6.356;2024-02-23T05:23:07;3.60;99.90
35531;DHT22;21637;53.352;-6.356;2024-02-23T05:25:33;3.60;99.90
35531;DHT22;21637;53.352;-6.356;2024-02-23T05:27:59;3.60;99.90
35531;DHT22;21637;53.352;-6.356;2024-02-23T05:30:24;3.50;99.90
35531;DHT22;21637;53.352;-6.356;2024-02-23T05:32:52;3.50;99.90
35531;DHT22;21637;53.352;-6.356;2024-02-23T05:35:18;3.50;99.90
35531;DHT22;21637;53.352;-6.356;2024-02-23T05:37:43;3.50;99.90
35531;DHT22;21637;53.352;-6.356;2024-02-23T05:40:09;3.50;99.90
35531;DHT22;21637;53.352;-6.356;2024-02-23T05:42:39;3.50;99.90
35531;DHT22;21637;53.352;-6.356;2024-02-23T05:45:06;3.50;99.90
35531;DHT22;21637;53.352;-6.356;2024-02-23T05:47:38;3.50;99.90
35531;DHT22;21637;53.352;-6.356;2024-02-23T05:50:05;3.40;99.90
35531;DHT22;21637;53.352;-6.356;2024-02-23T05:52:34;3.50;99.90
35531;DHT22;21637;53.352;-6.356;2024-02-23T05:55:00;3.50;99.90
35531;DHT22;21637;53.352;-6.356;2024-02-23T05:57:28;3.40;99.90
35531;DHT22;21637;53.352;-6.356;2024-02-23T05:59:54;3.40;99.90
35531;DHT22;21637;53.352;-6.356;2024-02-23T06:02:24;3.40;99.90
35531;DHT22;21637;53.352;-6.356;2024-02-23T06:04:50;3.40;99.90
35531;DHT22;21637;53.352;-6.356;2024-02-23T06:07:16;3.50;99.90
35531;DHT22;21637;53.352;-6.356;2024-02-23T06:09:42;3.40;99.90
35531;DHT22;21637;53.352;-6.356;2024-02-23T06:12:08;3.40;99.90
35531;DHT22;21637;53.352;-6.356;2024-02-23T06:14:35;3.40;99.90
35531;DHT22;21637;53.352;-6.356;2024-02-23T06:17:01;3.40;99.90
35531;DHT22;21637;53.352;-6.356;2024-02-23T06:19:27;3.50;99.90
35531;DHT22;21637;53.352;-6.356;2024-02-23T06:21:52;3.50;99.90
35531;DHT22;21637;53.352;-6.356;2024-02-23T06:24:18;3.50;99.90
35531;DHT22;21637;53.352;-6.356;2024-02-23T06:26:45;3.50;99.90
35531;DHT22;21637;53.352;-6.356;2024-02-23T06:29:11;3.50;99.90
35531;DHT22;21637;53.352;-6.356;2024-02-23T06:31:38;3.50;99.90
35531;DHT22;21637;53.352;-6.356;2024-02-23T06:34:05;3.50;99.90
35531;DHT22;21637;53.352;-6.356;2024-02-23T06:36:31;3.50;99.90
35531;DHT22;21637;53.352;-6.356;2024-02-23T06:38:56;3.50;99.90
35531;DHT22;21637;53.352;-6.356;2024-02-23T06:41:22;3.50;99.90
35531;DHT22;21637;53.352;-6.356;2024-02-23T06:43:48;3.50;99.90
35531;DHT22;21637;53.352;-6.356;2024-02-23T06:46:14;3.50;99.90
35531;DHT22;21637;53.352;-6.356;2024-02-23T06:48:39;3.50;99.90
35531;DHT22;21637;53.352;-6.356;2024-02-23T06:51:06;3.50;99.90
35531;DHT22;21637;53.352;-6.356;2024-02-23T06:53:35;3.50;99.90
35531;DHT22;21637;53.352;-6.356;2024-02-23T06:56:01;3.50;99.90
35531;DHT22;21637;53.352;-6.356;2024-02-23T06:58:27;3.50;99.90
35531;DHT22;21637;53.352;-6.356;2024-02-23T07:00:53;3.50;99.90
35531;DHT22;21637;53.352;-6.356;2024-02-23T07:03:19;3.50;99.90
35531;DHT22;21637;53.352;-6.356;2024-02-23T07:05:45;3.50;99.90
35531;DHT22;21637;53.352;-6.356;2024-02-23T07:08:11;3.50;99.90
35531;DHT22;21637;53.352;-6.356;2024-02-23T07:10:37;3.50;99.90
35531;DHT22;21637;53.352;-6.356;2024-02-23T07:13:03;3.50;99.90
35531;DHT22;21637;53.352;-6.356;2024-02-23T07:15:29;3.60;99.90
35531;DHT22;21637;53.352;-6.356;2024-02-23T07:17:55;3.60;99.90
35531;DHT22;21637;53.352;-6.356;2024-02-23T07:20:22;3.50;99.90
35531;DHT22;21637;53.352;-6.356;2024-02-23T07:22:48;3.50;99.90
35531;DHT22;21637;53.352;-6.356;2024-02-23T07:25:17;3.50;99.90
35531;DHT22;21637;53.352;-6.356;2024-02-23T07:27:44;3.50;99.90
35531;DHT22;21637;53.352;-6.356;2024-02-23T07:30:11;3.40;99.90
35531;DHT22;21637;53.352;-6.356;2024-02-23T07:32:37;3.40;99.90
35531;DHT22;21637;53.352;-6.356;2024-02-23T07:35:03;3.50;99.90
35531;DHT22;21637;53.352;-6.356;2024-02-23T07:37:29;3.40;99.90
35531;DHT22;21637;53.352;-6.356;2024-02-23T07:39:55;3.40;99.90
35531;DHT22;21637;53.352;-6.356;2024-02-23T07:42:21;3.40;99.90
35531;DHT22;21637;53.352;-6.356;2024-02-23T07:44:47;3.40;99.90
35531;DHT22;21637;53.352;-6.356;2024-02-23T07:47:12;3.40;99.90
35531;DHT22;21637;53.352;-6.356;2024-02-23T07:49:38;3.50;99.90
35531;DHT22;21637;53.352;-6.356;2024-02-23T07:52:06;3.50;99.90
35531;DHT22;21637;53.352;-6.356;2024-02-23T07:54:32;3.50;99.90
35531;DHT22;21637;53.352;-6.356;2024-02-23T07:56:58;3.60;99.90
35531;DHT22;21637;53.352;-6.356;2024-02-23T07:59:24;3.60;99.90
35531;DHT22;21637;53.352;-6.356;2024-02-23T08:01:50;3.70;99.90
35531;DHT22;21637;53.352;-6.356;2024-02-23T08:04:16;3.70;99.90
35531;DHT22;21637;53.352;-6.356;2024-02-23T08:06:42;3.80;99.90
35531;DHT22;21637;53.352;-6.356;2024-02-23T08:09:10;3.90;99.90
35531;DHT22;21637;53.352;-6.356;2024-02-23T08:11:36;3.90;99.90
35531;DHT22;21637;53.352;-6.356;2024-02-23T08:14:02;3.90;99.90
35531;DHT22;21637;53.352;-6.356;2024-02-23T08:16:28;4.00;99.90
35531;DHT22;21637;53.352;-6.356;2024-02-23T08:18:54;4.00;99.90
35531;DHT22;21637;53.352;-6.356;2024-02-23T08:21:20;4.00;99.90
35531;DHT22;21637;53.352;-6.356;2024-02-23T08:23:46;4.00;99.90
35531;DHT22;21637;53.352;-6.356;2024-02-23T08:26:12;4.00;99.90
35531;DHT22;21637;53.352;-6.356;2024-02-23T08:28:38;3.90;99.90
35531;DHT22;21637;53.352;-6.356;2024-02-23T08:31:03;4.00;99.90
35531;DHT22;21637;53.352;-6.356;2024-02-23T08:33:30;4.00;99.90
35531;DHT22;21637;53.352;-6.356;2024-02-23T08:35:56;3.90;99.90
35531;DHT22;21637;53.352;-6.356;2024-02-23T08:38:21;3.90;99.90
35531;DHT22;21637;53.352;-6.356;2024-02-23T08:40:47;4.00;99.90
35531;DHT22;21637;53.352;-6.356;2024-02-23T08:43:13;3.90;99.90
35531;DHT22;21637;53.352;-6.356;2024-02-23T08:45:39;3.90;99.90
35531;DHT22;21637;53.352;-6.356;2024-02-23T08:48:05;3.90;99.90
35531;DHT22;21637;53.352;-6.356;2024-02-23T08:50:32;3.90;99.90
35531;DHT22;21637;53.352;-6.356;2024-02-23T08:52:58;3.90;99.90
35531;DHT22;21637;53.352;-6.356;2024-02-23T08:55:23;3.90;99.90
35531;DHT22;21637;53.352;-6.356;2024-02-23T08:57:50;4.00;99.90
35531;DHT22;21637;53.352;-6.356;2024-02-23T09:00:16;4.00;99.90
35531;DHT22;21637;53.352;-6.356;2024-02-23T09:02:42;4.00;99.90
35531;DHT22;21637;53.352;-6.356;2024-02-23T09:05:08;4.00;99.90
35531;DHT22;21637;53.352;-6.356;2024-02-23T09:07:34;4.00;99.90
35531;DHT22;21637;53.352;-6.356;2024-02-23T09:10:01;4.00;99.90
35531;DHT22;21637;53.352;-6.356;2024-02-23T09:12:27;4.00;99.90
35531;DHT22;21637;53.352;-6.356;2024-02-23T09:14:52;4.00;99.90
35531;DHT22;21637;53.352;-6.356;2024-02-23T09:17:18;4.00;99.90
35531;DHT22;21637;53.352;-6.356;2024-02-23T09:19:46;4.00;99.90
35531;DHT22;21637;53.352;-6.356;2024-02-23T09:22:12;4.00;99.90
35531;DHT22;21637;53.352;-6.356;2024-02-23T09:24:40;4.00;99.90
35531;DHT22;21637;53.352;-6.356;2024-02-23T09:27:06;4.10;99.90
35531;DHT22;21637;53.352;-6.356;2024-02-23T09:29:33;4.10;99.90
35531;DHT22;21637;53.352;-6.356;2024-02-23T09:31:58;4.10;99.90
35531;DHT22;21637;53.352;-6.356;2024-02-23T09:34:25;4.20;99.90
35531;DHT22;21637;53.352;-6.356;2024-02-23T09:36:51;4.20;99.90
35531;DHT22;21637;53.352;-6.356;2024-02-23T09:39:17;4.20;99.90
35531;DHT22;21637;53.352;-6.356;2024-02-23T09:41:43;4.30;99.90
35531;DHT22;21637;53.352;-6.356;2024-02-23T09:44:09;4.30;99.90
35531;DHT22;21637;53.352;-6.356;2024-02-23T09:46:40;4.40;99.90
35531;DHT22;21637;53.352;-6.356;2024-02-23T09:49:07;4.50;99.90
35531;DHT22;21637;53.352;-6.356;2024-02-23T09:51:34;4.60;99.90
35531;DHT22;21637;53.352;-6.356;2024-02-23T09:54:01;4.60;99.90
35531;DHT22;21637;53.352;-6.356;2024-02-23T09:56:28;4.60;99.90
35531;DHT22;21637;53.352;-6.356;2024-02-23T09:58:59;4.60;99.90
35531;DHT22;21637;53.352;-6.356;2024-02-23T10:01:28;4.70;99.90
35531;DHT22;21637;53.352;-6.356;2024-02-23T10:03:57;4.70;99.90
35531;DHT22;21637;53.352;-6.356;2024-02-23T10:06:24;4.70;99.90
35531;DHT22;21637;53.352;-6.356;2024-02-23T10:08:50;4.70;99.90
35531;DHT22;21637;53.352;-6.356;2024-02-23T10:11:22;4.70;99.90
35531;DHT22;21637;53.352;-6.356;2024-02-23T10:13:48;4.70;99.90
35531;DHT22;21637;53.352;-6.356;2024-02-23T10:16:21;4.70;99.90
35531;DHT22;21637;53.352;-6.356;2024-02-23T10:18:48;4.70;99.90
35531;DHT22;21637;53.352;-6.356;2024-02-23T10:21:17;4.70;99.90
35531;DHT22;21637;53.352;-6.356;2024-02-23T10:23:47;4.70;99.90
35531;DHT22;21637;53.352;-6.356;2024-02-23T10:26:13;4.70;99.90
35531;DHT22;21637;53.352;-6.356;2024-02-23T10:28:45;4.80;99.90
35531;DHT22;21637;53.352;-6.356;2024-02-23T10:31:12;4.80;99.90
35531;DHT22;21637;53.352;-6.356;2024-02-23T10:33:38;4.80;99.90
35531;DHT22;21637;53.352;-6.356;2024-02-23T10:36:05;4.80;99.90
35531;DHT22;21637;53.352;-6.356;2024-02-23T10:38:37;4.90;99.90
35531;DHT22;21637;53.352;-6.356;2024-02-23T10:41:05;4.90;99.90
35531;DHT22;21637;53.352;-6.356;2024-02-23T10:43:45;5.00;99.90
35531;DHT22;21637;53.352;-6.356;2024-02-23T10:46:12;5.00;99.90
35531;DHT22;21637;53.352;-6.356;2024-02-23T10:48:41;5.10;99.90
35531;DHT22;21637;53.352;-6.356;2024-02-23T10:51:08;5.10;99.90
35531;DHT22;21637;53.352;-6.356;2024-02-23T10:53:36;5.20;99.90
35531;DHT22;21637;53.352;-6.356;2024-02-23T10:56:03;5.30;99.90
35531;DHT22;21637;53.352;-6.356;2024-02-23T10:58:30;5.30;99.90
35531;DHT22;21637;53.352;-6.356;2024-02-23T11:01:04;5.40;99.90
35531;DHT22;21637;53.352;-6.356;2024-02-23T11:03:32;5.40;99.90
35531;DHT22;21637;53.352;-6.356;2024-02-23T11:06:01;5.50;99.90
35531;DHT22;21637;53.352;-6.356;2024-02-23T11:08:32;5.50;99.90
35531;DHT22;21637;53.352;-6.356;2024-02-23T11:11:10;5.60;99.90
35531;DHT22;21637;53.352;-6.356;2024-02-23T11:13:40;5.60;99.90
35531;DHT22;21637;53.352;-6.356;2024-02-23T11:16:08;5.60;99.90
35531;DHT22;21637;53.352;-6.356;2024-02-23T11:18:39;5.70;99.90
35531;DHT22;21637;53.352;-6.356;2024-02-23T11:21:05;5.80;99.90
35531;DHT22;21637;53.352;-6.356;2024-02-23T11:23:41;5.80;99.90
35531;DHT22;21637;53.352;-6.356;2024-02-23T11:28:51;6.00;99.90
35531;DHT22;21637;53.352;-6.356;2024-02-23T11:31:21;6.10;99.90
35531;DHT22;21637;53.352;-6.356;2024-02-23T11:33:54;6.20;99.90
35531;DHT22;21637;53.352;-6.356;2024-02-23T11:36:24;6.30;99.90
35531;DHT22;21637;53.352;-6.356;2024-02-23T11:38:58;6.40;99.90
35531;DHT22;21637;53.352;-6.356;2024-02-23T11:41:25;6.40;99.90
35531;DHT22;21637;53.352;-6.356;2024-02-23T11:43:53;6.40;99.90
35531;DHT22;21637;53.352;-6.356;2024-02-23T11:46:19;6.40;99.90
35531;DHT22;21637;53.352;-6.356;2024-02-23T11:48:45;6.40;99.90
35531;DHT22;21637;53.352;-6.356;2024-02-23T11:51:15;6.40;99.90
35531;DHT22;21637;53.352;-6.356;2024-02-23T11:53:41;6.50;99.90
35531;DHT22;21637;53.352;-6.356;2024-02-23T11:56:07;6.50;99.90
35531;DHT22;21637;53.352;-6.356;2024-02-23T11:58:33;6.50;99.90
35531;DHT22;21637;53.352;-6.356;2024-02-23T12:01:00;6.50;99.90
35531;DHT22;21637;53.352;-6.356;2024-02-23T12:03:28;6.50;99.90
35531;DHT22;21637;53.352;-6.356;2024-02-23T12:05:57;6.50;99.90
35531;DHT22;21637;53.352;-6.356;2024-02-23T12:08:25;6.60;99.90
35531;DHT22;21637;53.352;-6.356;2024-02-23T12:10:54;6.60;99.90
35531;DHT22;21637;53.352;-6.356;2024-02-23T12:13:20;6.60;99.90
35531;DHT22;21637;53.352;-6.356;2024-02-23T12:15:47;6.60;99.90
35531;DHT22;21637;53.352;-6.356;2024-02-23T12:18:13;6.60;99.90
35531;DHT22;21637;53.352;-6.356;2024-02-23T12:20:40;6.70;99.90
35531;DHT22;21637;53.352;-6.356;2024-02-23T12:23:06;6.70;99.90
35531;DHT22;21637;53.352;-6.356;2024-02-23T12:25:35;6.90;99.90
35531;DHT22;21637;53.352;-6.356;2024-02-23T12:28:01;7.00;99.90
35531;DHT22;21637;53.352;-6.356;2024-02-23T12:30:30;6.90;99.90
35531;DHT22;21637;53.352;-6.356;2024-02-23T12:33:09;7.00;99.90
35531;DHT22;21637;53.352;-6.356;2024-02-23T12:35:35;7.00;99.90
35531;DHT22;21637;53.352;-6.356;2024-02-23T12:38:04;7.10;99.90
35531;DHT22;21637;53.352;-6.356;2024-02-23T12:40:29;7.10;99.90
35531;DHT22;21637;53.352;-6.356;2024-02-23T12:42:55;7.20;99.90
35531;DHT22;21637;53.352;-6.356;2024-02-23T12:45:21;7.40;99.90
35531;DHT22;21637;53.352;-6.356;2024-02-23T12:47:46;7.50;99.90
35531;DHT22;21637;53.352;-6.356;2024-02-23T12:50:12;7.60;99.90
35531;DHT22;21637;53.352;-6.356;2024-02-23T12:52:38;7.70;99.90
35531;DHT22;21637;53.352;-6.356;2024-02-23T12:55:04;7.70;99.90
35531;DHT22;21637;53.352;-6.356;2024-02-23T12:57:30;7.70;99.90
35531;DHT22;21637;53.352;-6.356;2024-02-23T12:59:55;7.70;99.90
35531;DHT22;21637;53.352;-6.356;2024-02-23T13:02:21;7.70;99.90
35531;DHT22;21637;53.352;-6.356;2024-02-23T13:04:47;7.60;99.90
35531;DHT22;21637;53.352;-6.356;2024-02-23T13:07:18;7.50;99.90
35531;DHT22;21637;53.352;-6.356;2024-02-23T13:09:44;7.50;99.90
35531;DHT22;21637;53.352;-6.356;2024-02-23T13:12:09;7.40;99.90
35531;DHT22;21637;53.352;-6.356;2024-02-23T13:14:35;7.30;99.90
35531;DHT22;21637;53.352;-6.356;2024-02-23T13:17:01;7.30;99.90
35531;DHT22;21637;53.352;-6.356;2024-02-23T13:19:27;7.30;99.90
35531;DHT22;21637;53.352;-6.356;2024-02-23T13:21:52;7.30;99.90
35531;DHT22;21637;53.352;-6.356;2024-02-23T13:24:18;7.40;99.90
35531;DHT22;21637;53.352;-6.356;2024-02-23T13:26:44;7.30;99.90
35531;DHT22;21637;53.352;-6.356;2024-02-23T13:29:10;7.30;99.90
35531;DHT22;21637;53.352;-6.356;2024-02-23T13:31:36;7.40;99.90
35531;DHT22;21637;53.352;-6.356;2024-02-23T13:34:03;7.30;99.90
35531;DHT22;21637;53.352;-6.356;2024-02-23T13:36:29;7.40;99.90
35531;DHT22;21637;53.352;-6.356;2024-02-23T13:38:55;7.40;99.90
35531;DHT22;21637;53.352;-6.356;2024-02-23T13:41:21;7.40;99.90
35531;DHT22;21637;53.352;-6.356;2024-02-23T13:43:46;7.30;99.90
35531;DHT22;21637;53.352;-6.356;2024-02-23T13:46:12;7.30;99.90
35531;DHT22;21637;53.352;-6.356;2024-02-23T13:48:38;7.20;99.90
35531;DHT22;21637;53.352;-6.356;2024-02-23T13:51:04;7.20;99.90
35531;DHT22;21637;53.352;-6.356;2024-02-23T13:53:31;7.20;99.90
35531;DHT22;21637;53.352;-6.356;2024-02-23T13:55:58;7.30;99.90
35531;DHT22;21637;53.352;-6.356;2024-02-23T13:58:24;7.40;99.90
35531;DHT22;21637;53.352;-6.356;2024-02-23T14:00:50;7.50;99.90
35531;DHT22;21637;53.352;-6.356;2024-02-23T14:03:17;7.60;99.90
35531;DHT22;21637;53.352;-6.356;2024-02-23T14:05:46;7.70;99.90
35531;DHT22;21637;53.352;-6.356;2024-02-23T14:08:12;7.80;99.90
35531;DHT22;21637;53.352;-6.356;2024-02-23T14:10:38;7.80;99.90
35531;DHT22;21637;53.352;-6.356;2024-02-23T14:13:05;7.90;99.90
35531;DHT22;21637;53.352;-6.356;2024-02-23T14:15:31;8.00;99.90
35531;DHT22;21637;53.352;-6.356;2024-02-23T14:17:57;8.00;99.90
35531;DHT22;21637;53.352;-6.356;2024-02-23T14:20:23;8.10;99.90
35531;DHT22;21637;53.352;-6.356;2024-02-23T14:22:49;8.10;99.90
35531;DHT22;21637;53.352;-6.356;2024-02-23T14:25:15;8.10;99.90
35531;DHT22;21637;53.352;-6.356;2024-02-23T14:27:41;8.10;99.90
35531;DHT22;21637;53.352;-6.356;2024-02-23T14:30:08;8.10;99.90
35531;DHT22;21637;53.352;-6.356;2024-02-23T14:32:34;8.10;99.90
35531;DHT22;21637;53.352;-6.356;2024-02-23T14:35:02;8.10;99.90
35531;DHT22;21637;53.352;-6.356;2024-02-23T14:37:29;8.10;99.90
35531;DHT22;21637;53.352;-6.356;2024-02-23T14:39:54;8.10;99.90
35531;DHT22;21637;53.352;-6.356;2024-02-23T14:42:20;8.10;99.90
35531;DHT22;21637;53.352;-6.356;2024-02-23T14:44:46;8.00;99.90
35531;DHT22;21637;53.352;-6.356;2024-02-23T14:47:12;8.10;99.90
35531;DHT22;21637;53.352;-6.356;2024-02-23T14:49:40;8.10;99.90
35531;DHT22;21637;53.352;-6.356;2024-02-23T14:52:06;8.10;99.90
35531;DHT22;21637;53.352;-6.356;2024-02-23T14:54:31;8.10;99.90
35531;DHT22;21637;53.352;-6.356;2024-02-23T14:56:59;8.10;99.90
35531;DHT22;21637;53.352;-6.356;2024-02-23T14:59:24;8.10;99.90
35531;DHT22;21637;53.352;-6.356;2024-02-23T15:01:50;8.00;99.90
35531;DHT22;21637;53.352;-6.356;2024-02-23T15:04:16;8.10;99.90
35531;DHT22;21637;53.352;-6.356;2024-02-23T15:06:42;8.10;99.90
35531;DHT22;21637;53.352;-6.356;2024-02-23T15:09:08;8.10;99.90
35531;DHT22;21637;53.352;-6.356;2024-02-23T15:11:34;8.10;99.90
35531;DHT22;21637;53.352;-6.356;2024-02-23T15:13:59;8.00;99.90
35531;DHT22;21637;53.352;-6.356;2024-02-23T15:16:27;8.00;99.90
35531;DHT22;21637;53.352;-6.356;2024-02-23T15:18:53;8.00;99.90
35531;DHT22;21637;53.352;-6.356;2024-02-23T15:21:20;7.90;99.90
35531;DHT22;21637;53.352;-6.356;2024-02-23T15:23:46;7.80;99.90
35531;DHT22;21637;53.352;-6.356;2024-02-23T15:26:12;7.80;99.90
35531;DHT22;21637;53.352;-6.356;2024-02-23T15:28:38;7.80;99.90